createdAt,value
2018-11-14T07:17:36.648Z,88.13
2018-11-14T07:22:41.395Z,213.37
2018-11-14T07:27:45.554Z,453.47
2018-11-14T07:32:51.136Z,240.68
2018-11-14T07:38:59.851Z,20.40
2018-11-14T07:44:03.975Z,247.27
2018-11-14T07:49:07.449Z,251.47
2018-11-14T07:54:10.945Z,255.92
2018-11-14T07:59:15.066Z,41.83
2018-11-14T08:04:19.030Z,97.50
2018-11-14T08:09:23.011Z,127.57
2018-11-14T08:14:26.583Z,37.33
2018-11-14T08:19:30.043Z,338.43
2018-11-14T08:24:33.615Z,395.35
2018-11-14T08:29:37.269Z,273.83
2018-11-14T08:34:41.006Z,300.25
2018-11-14T08:39:44.653Z,318.73
2018-11-14T08:44:48.667Z,235.93
2018-11-14T08:49:53.375Z,234.37
2018-11-14T08:54:57.386Z,56.73
2018-11-14T09:00:01.494Z,146.23
2018-11-14T09:05:05.900Z,390.53
2018-11-14T09:10:15.303Z,119.20
2018-11-14T09:15:20.640Z,95.27
2018-11-14T09:20:25.576Z,35.37
2018-11-14T09:25:30.948Z,88.92
2018-11-14T09:30:34.703Z,48.40
2018-11-14T09:35:38.844Z,15.80
2018-11-14T09:40:43.046Z,90.83
2018-11-14T09:45:47.613Z,122.37
2018-11-14T09:50:51.156Z,134.33
2018-11-14T09:55:54.821Z,35.43
2018-11-14T10:00:58.375Z,41.42
2018-11-14T10:06:02.155Z,10.82
2018-11-14T10:11:06.231Z,67.40
2018-11-14T10:16:10.379Z,87.13
2018-11-14T10:21:14.334Z,45.80
2018-11-14T10:26:18.213Z,6.73
2018-11-14T10:31:22.922Z,68.40
2018-11-14T10:36:26.759Z,34.30
2018-11-14T10:41:30.278Z,123.07
2018-11-14T10:46:34.561Z,24.23
2018-11-14T10:51:38.680Z,150.13
2018-11-14T10:56:42.634Z,41.67
2018-11-14T11:01:52.622Z,218.43
2018-11-14T11:07:02.240Z,27.53
2018-11-14T11:12:11.468Z,76.97
2018-11-14T11:17:20.201Z,152.83
2018-11-14T11:22:23.739Z,5.33
2018-11-14T11:27:27.557Z,15.17
2018-11-14T11:32:31.278Z,8.67
2018-11-14T11:37:35.119Z,26.40
2018-11-14T11:42:38.868Z,6.50
2018-11-14T11:47:43.187Z,7.03
2018-11-14T11:52:47.293Z,8.73
2018-11-14T11:57:51.389Z,11.50
2018-11-14T12:02:54.964Z,24.87
2018-11-14T12:07:58.463Z,6.73
2018-11-14T12:13:02.522Z,30.83
2018-11-14T12:18:06.867Z,8.10
2018-11-14T12:23:11.152Z,27.70
2018-11-14T12:28:15.759Z,8.63
2018-11-14T12:33:19.801Z,9.50
2018-11-14T12:38:23.275Z,7.43
2018-11-14T12:43:28.011Z,13.43
2018-11-14T12:48:31.685Z,6.37
2018-11-14T12:53:35.904Z,9.23
2018-11-14T12:58:39.691Z,9.17
2018-11-14T13:03:43.433Z,10.60
2018-11-14T13:08:47.255Z,10.77
2018-11-14T13:13:51.538Z,9.03
2018-11-14T13:18:55.241Z,11.23
2018-11-14T13:23:59.984Z,11.12
2018-11-14T13:29:03.947Z,11.03
2018-11-14T13:34:08.100Z,12.30
2018-11-14T13:39:12.171Z,12.88
2018-11-14T13:44:16.171Z,9.33
2018-11-14T13:49:20.098Z,8.60
2018-11-14T13:54:24.971Z,10.87
2018-11-14T13:59:29.204Z,8.27
2018-11-14T14:04:33.257Z,12.93
2018-11-14T14:09:37.030Z,10.60
2018-11-14T14:14:40.956Z,9.33
2018-11-14T14:19:44.870Z,12.27
2018-11-14T14:24:48.651Z,9.80
2018-11-14T14:29:53.593Z,10.40
2018-11-14T14:34:59.524Z,11.40
2018-11-14T14:40:03.334Z,11.20
2018-11-14T14:45:08.727Z,11.13
2018-11-14T14:50:14.276Z,17.80
2018-11-14T14:55:20.163Z,10.33
2018-11-14T15:00:27.474Z,11.00
2018-11-14T15:05:31.784Z,10.70
2018-11-14T15:10:35.380Z,12.50
2018-11-14T15:15:39.622Z,12.15
2018-11-14T15:20:43.415Z,10.38
2018-11-14T15:25:47.193Z,11.43
2018-11-14T15:30:50.817Z,10.20
2018-11-14T15:35:54.737Z,10.03
2018-11-14T15:40:58.501Z,8.50
2018-11-14T15:46:02.200Z,10.77
2018-11-14T15:51:06.288Z,10.03
2018-11-14T15:56:09.922Z,12.53
2018-11-14T16:01:13.996Z,10.08
2018-11-14T16:06:18.148Z,8.37
2018-11-14T16:11:22.079Z,9.97
2018-11-14T16:16:26.090Z,11.50
2018-11-14T16:21:30.185Z,10.47
2018-11-14T16:26:34.904Z,9.07
2018-11-14T16:31:38.616Z,8.60
2018-11-14T16:36:43.407Z,12.10
2018-11-14T16:41:47.684Z,12.03
2018-11-14T16:46:51.755Z,9.73
2018-11-14T16:51:55.721Z,7.70
2018-11-14T16:56:59.675Z,8.87
2018-11-14T17:02:03.416Z,7.13
2018-11-14T17:07:07.106Z,8.10
2018-11-14T17:12:10.706Z,9.97
2018-11-14T17:17:14.474Z,9.67
2018-11-14T17:22:18.164Z,9.57
2018-11-14T17:27:21.711Z,11.13
2018-11-14T17:32:25.574Z,11.77
2018-11-14T17:37:29.276Z,20.53
2018-11-14T17:42:33.096Z,24.47
2018-11-14T17:47:36.678Z,31.80
2018-11-14T17:52:40.752Z,41.60
2018-11-14T17:57:44.569Z,39.60
2018-11-14T18:02:48.516Z,38.60
2018-11-14T18:07:52.971Z,28.87
2018-11-14T18:12:58.164Z,32.27
2018-11-14T18:18:02.568Z,24.80
2018-11-14T18:23:06.407Z,30.77
2018-11-14T18:28:10.733Z,27.50
2018-11-14T18:33:14.350Z,28.50
2018-11-14T18:38:18.703Z,26.33
2018-11-14T18:43:23.404Z,19.03
2018-11-14T18:48:27.588Z,23.50
2018-11-14T18:53:31.480Z,19.53
2018-11-14T18:58:35.211Z,16.80
2018-11-14T19:03:38.994Z,17.50
2018-11-14T19:08:42.611Z,16.02
2018-11-14T19:13:46.247Z,14.98
2018-11-14T19:18:50.141Z,13.33
2018-11-14T19:23:53.859Z,11.07
2018-11-14T19:28:58.320Z,12.67
2018-11-14T19:34:02.910Z,11.67
2018-11-14T19:39:10.193Z,13.50
2018-11-14T19:44:15.383Z,14.63
2018-11-14T19:49:19.524Z,13.80
2018-11-14T19:54:23.522Z,13.85
2018-11-14T19:59:27.918Z,13.18
2018-11-14T20:04:31.796Z,14.63
2018-11-14T20:09:35.568Z,17.03
2018-11-14T20:14:39.443Z,13.50
2018-11-14T20:19:42.997Z,12.73
2018-11-14T20:24:47.728Z,10.90
2018-11-14T20:29:52.783Z,12.03
2018-11-14T20:34:56.453Z,12.73
2018-11-14T20:40:00.542Z,11.63
2018-11-14T20:45:04.185Z,9.57
2018-11-14T20:50:11.368Z,9.77
2018-11-14T20:55:14.966Z,11.73
2018-11-14T21:00:22.669Z,15.73
2018-11-14T21:05:27.393Z,10.03
2018-11-14T21:10:32.170Z,11.60
2018-11-14T21:15:37.380Z,13.43
2018-11-14T21:20:41.089Z,13.10
2018-11-14T21:25:44.935Z,12.17
2018-11-14T21:30:48.510Z,14.40
2018-11-14T21:35:52.231Z,10.47
2018-11-14T21:40:55.872Z,12.57
2018-11-14T21:45:59.425Z,12.57
2018-11-14T21:51:02.966Z,179.10
2018-11-14T21:56:06.957Z,39.90
2018-11-14T22:01:10.650Z,16.32
2018-11-14T22:06:14.368Z,141.50
2018-11-14T22:11:18.570Z,72.20
2018-11-14T22:16:25.302Z,12.88
2018-11-14T22:21:29.152Z,65.93
2018-11-14T22:26:33.440Z,8.40
2018-11-14T22:31:38.931Z,11.47
2018-11-14T22:36:44.596Z,11.57
2018-11-14T22:41:49.139Z,31.33
2018-11-14T22:46:53.665Z,38.73
2018-11-14T22:51:57.345Z,199.37
2018-11-14T22:57:01.582Z,228.02
2018-11-14T23:02:06.450Z,84.43
2018-11-14T23:07:10.205Z,410.40
2018-11-14T23:12:14.395Z,451.20
2018-11-14T23:17:18.188Z,260.10
2018-11-14T23:22:21.670Z,255.13
2018-11-14T23:27:25.234Z,164.07
2018-11-14T23:32:28.699Z,102.43
2018-11-14T23:37:32.202Z,11.83
2018-11-14T23:42:36.285Z,23.80
2018-11-14T23:47:39.874Z,27.10
2018-11-14T23:52:44.831Z,8.93
2018-11-14T23:57:48.676Z,24.50
